createdAt,value
2018-01-28T00:00:18.987Z,13.30
2018-01-28T00:02:11.934Z,12.80
2018-01-28T00:03:11.846Z,12.90
2018-01-28T00:05:04.744Z,13.90
2018-01-28T00:06:04.694Z,13.20
2018-01-28T00:07:57.634Z,12.50
2018-01-28T00:08:57.539Z,12.90
2018-01-28T00:10:50.443Z,12.20
2018-01-28T00:11:50.391Z,12.40
2018-01-28T00:13:43.290Z,12.90
2018-01-28T00:14:43.238Z,12.40
2018-01-28T00:16:36.121Z,13.10
2018-01-28T00:17:36.089Z,13.10
2018-01-28T00:19:29.041Z,12.60
2018-01-28T00:20:28.940Z,10.80
2018-01-28T00:22:21.823Z,13.70
2018-01-28T00:23:21.789Z,13.10
2018-01-28T00:25:14.691Z,13.00
2018-01-28T00:26:14.641Z,13.50
2018-01-28T00:28:07.523Z,12.80
2018-01-28T00:29:07.492Z,12.60
2018-01-28T00:31:00.393Z,13.00
2018-01-28T00:32:00.337Z,13.80
2018-01-28T00:33:53.245Z,12.10
2018-01-28T00:34:53.195Z,12.60
2018-01-28T00:36:46.094Z,12.90
2018-01-28T00:37:46.043Z,12.00
2018-01-28T00:39:38.949Z,12.80
2018-01-28T00:40:38.894Z,13.20
2018-01-28T00:42:31.773Z,13.80
2018-01-28T00:43:31.744Z,13.60
2018-01-28T00:45:24.651Z,13.50
2018-01-28T00:46:24.657Z,13.40
2018-01-28T00:48:17.545Z,13.80
2018-01-28T00:49:17.465Z,14.20
2018-01-28T00:51:10.352Z,13.80
2018-01-28T00:52:10.297Z,14.10
2018-01-28T00:54:03.178Z,15.00
2018-01-28T00:55:03.143Z,15.90
2018-01-28T00:56:56.100Z,14.60
2018-01-28T00:57:56.005Z,13.80
2018-01-28T00:59:48.874Z,14.70
2018-01-28T01:00:48.847Z,14.10
2018-01-28T01:02:41.760Z,14.90
2018-01-28T01:03:41.694Z,14.70
2018-01-28T01:05:34.581Z,13.80
2018-01-28T01:06:34.609Z,13.70
2018-01-28T01:08:27.498Z,13.60
2018-01-28T01:09:27.399Z,12.10
2018-01-28T01:11:20.349Z,13.00
2018-01-28T01:12:20.246Z,12.90
2018-01-28T01:14:13.161Z,12.50
2018-01-28T01:15:13.120Z,11.10
2018-01-28T01:17:05.980Z,12.20
2018-01-28T01:18:05.951Z,11.70
2018-01-28T01:19:58.900Z,10.00
2018-01-28T01:20:58.800Z,10.10
2018-01-28T01:22:51.748Z,10.80
2018-01-28T01:23:51.647Z,10.10
2018-01-28T01:25:44.557Z,11.60
2018-01-28T01:26:44.500Z,12.30
2018-01-28T01:28:37.453Z,10.60
2018-01-28T01:29:37.348Z,11.80
2018-01-28T01:31:30.299Z,11.10
2018-01-28T01:32:30.199Z,11.20
2018-01-28T01:34:23.151Z,12.00
2018-01-28T01:35:23.051Z,12.20
2018-01-28T01:37:16.003Z,12.90
2018-01-28T01:38:15.902Z,12.80
2018-01-28T01:40:08.852Z,12.10
2018-01-28T01:41:08.749Z,12.60
2018-01-28T01:43:01.701Z,12.80
2018-01-28T01:44:01.611Z,12.20
2018-01-28T01:45:55.580Z,15.30
2018-01-28T01:46:54.451Z,14.70
2018-01-28T01:48:47.369Z,14.00
2018-01-28T01:49:47.306Z,16.00
2018-01-28T01:51:40.186Z,15.40
2018-01-28T01:52:40.157Z,15.50
2018-01-28T01:54:33.104Z,15.70
2018-01-28T01:55:33.006Z,14.00
2018-01-28T01:57:25.955Z,19.00
2018-01-28T01:58:25.864Z,20.30
2018-01-28T02:00:18.769Z,19.00
2018-01-28T02:01:18.704Z,20.80
2018-01-28T02:03:11.588Z,20.80
2018-01-28T02:04:11.620Z,19.90
2018-01-28T02:06:04.479Z,24.40
2018-01-28T02:07:04.470Z,23.20
2018-01-28T02:08:57.293Z,18.70
2018-01-28T02:09:57.320Z,19.60
2018-01-28T02:11:50.171Z,21.50
2018-01-28T02:12:50.172Z,22.40
2018-01-28T02:14:43.086Z,22.80
2018-01-28T02:15:42.959Z,24.60
2018-01-28T02:17:35.871Z,24.70
2018-01-28T02:18:35.811Z,20.10
2018-01-28T02:20:28.694Z,20.90
2018-01-28T02:21:28.661Z,22.70
2018-01-28T02:23:21.570Z,23.00
2018-01-28T02:24:21.512Z,21.50
2018-01-28T02:26:14.397Z,21.70
2018-01-28T02:27:14.361Z,22.50
2018-01-28T02:29:07.265Z,23.20
2018-01-28T02:30:07.276Z,21.60
2018-01-28T02:32:00.115Z,20.50
2018-01-28T02:33:00.127Z,20.40
2018-01-28T02:34:52.967Z,20.70
2018-01-28T02:35:52.975Z,19.50
2018-01-28T02:37:45.791Z,20.30
2018-01-28T02:38:45.764Z,19.40
2018-01-28T02:40:38.680Z,20.60
2018-01-28T02:41:38.610Z,16.20
2018-01-28T02:43:31.495Z,19.60
2018-01-28T02:44:31.472Z,21.80
2018-01-28T02:46:24.386Z,19.90
2018-01-28T02:47:24.315Z,20.90
2018-01-28T02:49:17.196Z,18.70
2018-01-28T02:50:17.166Z,20.80
2018-01-28T02:52:10.082Z,17.00
2018-01-28T02:53:10.021Z,20.00
2018-01-28T02:55:02.897Z,19.30
2018-01-28T02:56:02.937Z,19.30
2018-01-28T02:57:55.779Z,19.00
2018-01-28T02:58:55.718Z,18.20
2018-01-28T03:00:48.597Z,19.30
2018-01-28T03:01:48.629Z,19.10
2018-01-28T03:03:41.480Z,19.20
2018-01-28T03:04:41.416Z,19.10
2018-01-28T03:06:34.370Z,17.30
2018-01-28T03:07:34.268Z,17.60
2018-01-28T03:09:27.216Z,18.40
2018-01-28T03:10:27.119Z,17.10
2018-01-28T03:12:20.066Z,15.90
2018-01-28T03:13:19.968Z,16.00
2018-01-28T03:15:12.889Z,17.10
2018-01-28T03:16:12.823Z,15.80
2018-01-28T03:18:05.711Z,16.60
2018-01-28T03:19:05.667Z,15.30
2018-01-28T03:20:58.639Z,15.20
2018-01-28T03:21:58.520Z,14.10
2018-01-28T03:23:51.469Z,13.10
2018-01-28T03:24:51.374Z,14.70
2018-01-28T03:26:44.322Z,13.10
2018-01-28T03:27:44.230Z,14.30
2018-01-28T03:29:37.101Z,13.80
2018-01-28T03:30:37.136Z,14.30
2018-01-28T03:32:29.987Z,13.10
2018-01-28T03:33:29.991Z,14.60
2018-01-28T03:35:22.976Z,15.10
2018-01-28T03:36:22.900Z,14.40
2018-01-28T03:38:15.824Z,14.90
2018-01-28T03:39:15.731Z,16.00
2018-01-28T03:41:08.678Z,15.70
2018-01-28T03:42:08.575Z,14.10
2018-01-28T03:44:01.529Z,17.10
2018-01-28T03:45:01.421Z,17.40
2018-01-28T03:46:54.379Z,16.10
2018-01-28T03:47:54.281Z,16.70
2018-01-28T03:49:47.228Z,20.30
2018-01-28T03:50:47.126Z,20.20
2018-01-28T03:52:40.013Z,19.30
2018-01-28T03:53:40.041Z,21.80
2018-01-28T03:55:32.927Z,20.80
2018-01-28T03:56:32.826Z,20.20
2018-01-28T03:58:25.777Z,20.90
2018-01-28T03:59:25.681Z,17.80
2018-01-28T04:01:18.582Z,19.30
2018-01-28T04:02:18.532Z,19.30
2018-01-28T04:04:11.414Z,18.10
2018-01-28T04:05:11.377Z,18.90
2018-01-28T04:07:04.283Z,17.70
2018-01-28T04:08:04.229Z,20.00
2018-01-28T04:09:57.135Z,18.50
2018-01-28T04:10:57.141Z,17.40
2018-01-28T04:12:50.033Z,18.50
2018-01-28T04:13:49.939Z,18.40
2018-01-28T04:15:42.841Z,16.60
2018-01-28T04:16:42.850Z,15.60
2018-01-28T04:18:35.735Z,16.20
2018-01-28T04:19:35.630Z,17.20
2018-01-28T04:21:28.583Z,17.00
2018-01-28T04:22:28.493Z,17.40
2018-01-28T04:24:21.429Z,17.30
2018-01-28T04:25:21.334Z,16.90
2018-01-28T04:27:14.249Z,14.10
2018-01-28T04:28:14.181Z,17.50
2018-01-28T04:30:07.131Z,18.00
2018-01-28T04:31:07.034Z,17.30
2018-01-28T04:32:59.940Z,17.40
2018-01-28T04:33:59.893Z,17.70
2018-01-28T04:35:52.770Z,13.50
2018-01-28T04:36:52.796Z,14.40
2018-01-28T04:38:45.639Z,13.80
2018-01-28T04:39:45.587Z,15.10
2018-01-28T04:41:38.534Z,15.20
2018-01-28T04:42:38.438Z,16.20
2018-01-28T04:44:31.383Z,14.80
2018-01-28T04:45:31.284Z,12.40
2018-01-28T04:47:24.169Z,13.70
2018-01-28T04:48:24.136Z,13.30
2018-01-28T04:50:17.052Z,14.90
2018-01-28T04:51:17.057Z,12.30
2018-01-28T04:53:09.935Z,15.60
2018-01-28T04:54:09.848Z,14.90
2018-01-28T04:56:02.753Z,14.50
2018-01-28T04:57:02.703Z,14.80
2018-01-28T04:58:55.633Z,14.30
2018-01-28T04:59:55.536Z,14.30
2018-01-28T05:01:48.443Z,13.80
2018-01-28T05:02:48.390Z,14.50
2018-01-28T05:04:41.340Z,15.50
2018-01-28T05:05:41.240Z,15.90
2018-01-28T05:07:34.190Z,16.30
2018-01-28T05:08:34.091Z,16.00
2018-01-28T05:10:26.973Z,16.30
2018-01-28T05:11:27.004Z,17.30
2018-01-28T05:13:19.854Z,17.50
2018-01-28T05:14:19.853Z,16.70
2018-01-28T05:16:12.673Z,16.70
2018-01-28T05:17:12.705Z,18.10
2018-01-28T05:19:05.549Z,18.40
2018-01-28T05:20:05.556Z,17.70
2018-01-28T05:21:58.443Z,17.10
2018-01-28T05:22:58.341Z,16.50
2018-01-28T05:24:51.295Z,14.40
2018-01-28T05:25:51.193Z,14.90
2018-01-28T05:27:44.159Z,15.60
2018-01-28T05:28:44.053Z,14.20
2018-01-28T05:30:36.960Z,17.20
2018-01-28T05:31:36.894Z,16.90
2018-01-28T05:33:29.778Z,14.90
2018-01-28T05:34:29.810Z,15.20
2018-01-28T05:36:22.693Z,15.10
2018-01-28T05:37:22.598Z,14.90
2018-01-28T05:39:15.480Z,16.40
2018-01-28T05:40:15.458Z,16.90
2018-01-28T05:42:08.398Z,17.50
2018-01-28T05:43:08.327Z,16.60
2018-01-28T05:45:01.238Z,15.80
2018-01-28T05:46:01.206Z,19.50
2018-01-28T05:47:54.200Z,20.70
2018-01-28T05:48:53.997Z,19.90
2018-01-28T05:50:48.076Z,19.30
2018-01-28T05:51:46.989Z,19.40
2018-01-28T05:53:39.957Z,18.10
2018-01-28T05:54:40.067Z,22.70
2018-01-28T05:56:32.880Z,20.60
2018-01-28T05:57:33.024Z,23.10
2018-01-28T05:59:25.864Z,24.00
2018-01-28T06:00:25.804Z,24.50
2018-01-28T06:02:18.791Z,19.70
2018-01-28T06:03:18.823Z,22.60
2018-01-28T06:05:11.918Z,24.40
2018-01-28T06:06:11.766Z,26.80
2018-01-28T06:08:04.696Z,26.20
2018-01-28T06:09:04.659Z,25.70
2018-01-28T06:10:57.827Z,27.70
2018-01-28T06:11:57.618Z,27.20
2018-01-28T06:13:50.602Z,26.50
2018-01-28T06:14:50.567Z,26.70
2018-01-28T06:16:43.586Z,22.10
2018-01-28T06:17:43.533Z,27.30
2018-01-28T06:19:36.509Z,29.40
2018-01-28T06:20:36.478Z,28.80
2018-01-28T06:22:29.484Z,31.90
2018-01-28T06:23:29.595Z,31.30
2018-01-28T06:25:22.482Z,28.20
2018-01-28T06:26:22.383Z,28.30
2018-01-28T06:28:15.398Z,28.40
2018-01-28T06:29:15.330Z,30.70
2018-01-28T06:31:08.317Z,31.90
2018-01-28T06:32:08.287Z,32.00
2018-01-28T06:34:01.297Z,31.10
2018-01-28T06:35:01.240Z,33.40
2018-01-28T06:36:54.307Z,32.60
2018-01-28T06:37:54.189Z,33.60
2018-01-28T06:39:47.352Z,34.40
2018-01-28T06:40:47.148Z,34.00
2018-01-28T06:42:40.036Z,34.10
2018-01-28T06:43:40.006Z,34.40
2018-01-28T06:45:34.080Z,35.20
2018-01-28T06:46:32.864Z,34.30
2018-01-28T06:48:25.836Z,35.10
2018-01-28T06:49:25.866Z,32.30
2018-01-28T06:51:18.858Z,36.10
2018-01-28T06:52:18.671Z,34.80
2018-01-28T06:54:11.537Z,34.50
2018-01-28T06:55:11.554Z,32.90
2018-01-28T06:57:04.425Z,30.40
2018-01-28T06:58:04.354Z,37.70
2018-01-28T06:59:57.308Z,37.40
2018-01-28T07:00:57.206Z,38.00
2018-01-28T07:02:50.118Z,34.40
2018-01-28T07:03:50.118Z,37.60
2018-01-28T07:05:42.978Z,39.10
2018-01-28T07:06:42.949Z,37.40
2018-01-28T07:08:35.854Z,27.70
2018-01-28T07:09:35.751Z,37.40
2018-01-28T07:11:28.675Z,38.80
2018-01-28T07:12:28.616Z,39.20
2018-01-28T07:14:22.043Z,38.00
2018-01-28T07:15:21.455Z,36.80
2018-01-28T07:17:14.343Z,39.90
2018-01-28T07:18:14.307Z,38.70
2018-01-28T07:20:07.221Z,40.30
2018-01-28T07:21:07.157Z,40.50
2018-01-28T07:23:00.112Z,38.90
2018-01-28T07:24:00.025Z,40.30
2018-01-28T07:25:53.014Z,40.80
2018-01-28T07:26:52.858Z,38.20
2018-01-28T07:28:45.742Z,40.40
2018-01-28T07:29:45.707Z,40.60
2018-01-28T07:31:38.662Z,39.80
2018-01-28T07:32:38.619Z,38.80
2018-01-28T07:34:31.505Z,41.30
2018-01-28T07:35:31.411Z,41.00
2018-01-28T07:37:24.362Z,37.10
2018-01-28T07:38:24.260Z,38.20
2018-01-28T07:40:17.108Z,39.70
2018-01-28T07:41:17.074Z,38.80
2018-01-28T07:43:09.975Z,40.90
2018-01-28T07:44:09.922Z,41.70
2018-01-28T07:46:02.821Z,37.20
2018-01-28T07:47:02.724Z,39.40
2018-01-28T07:48:55.574Z,37.20
2018-01-28T07:49:55.523Z,37.40
2018-01-28T07:51:48.447Z,39.50
2018-01-28T07:52:48.412Z,37.20
2018-01-28T07:54:41.322Z,43.20
2018-01-28T07:55:41.323Z,40.20
2018-01-28T07:57:34.216Z,42.90
2018-01-28T07:58:34.114Z,39.00
2018-01-28T08:00:27.062Z,42.00
2018-01-28T08:01:26.958Z,41.50
2018-01-28T08:03:19.869Z,42.30
2018-01-28T08:04:19.820Z,42.30
2018-01-28T08:06:12.711Z,41.90
2018-01-28T08:07:12.723Z,39.90
2018-01-28T08:09:05.615Z,37.60
2018-01-28T08:10:05.517Z,43.00
2018-01-28T08:11:58.466Z,40.40
2018-01-28T08:12:58.364Z,44.80
2018-01-28T08:14:51.272Z,44.20
2018-01-28T08:15:51.212Z,45.50
2018-01-28T08:17:44.173Z,46.00
2018-01-28T08:18:44.067Z,41.60
2018-01-28T08:20:37.018Z,45.20
2018-01-28T08:21:36.914Z,47.50
2018-01-28T08:23:29.801Z,46.00
2018-01-28T08:24:29.765Z,45.50
2018-01-28T08:26:22.714Z,42.20
2018-01-28T08:27:22.615Z,41.10
2018-01-28T08:29:15.569Z,45.10
2018-01-28T08:30:15.468Z,42.10
2018-01-28T08:32:08.420Z,42.40
2018-01-28T08:33:08.316Z,46.40
2018-01-28T08:35:01.273Z,39.70
2018-01-28T08:36:01.166Z,41.90
2018-01-28T08:37:54.072Z,43.00
2018-01-28T08:38:54.083Z,43.90
2018-01-28T08:40:46.900Z,41.90
2018-01-28T08:41:46.932Z,42.70
2018-01-28T08:43:39.825Z,40.70
2018-01-28T08:44:39.721Z,47.00
2018-01-28T08:46:32.803Z,42.60
2018-01-28T08:47:32.574Z,42.80
2018-01-28T08:49:25.519Z,42.90
2018-01-28T08:50:25.430Z,42.00
2018-01-28T08:52:18.375Z,45.50
2018-01-28T08:53:18.271Z,44.40
2018-01-28T08:55:12.257Z,43.00
2018-01-28T08:56:11.152Z,42.90
2018-01-28T08:58:04.513Z,42.50
2018-01-28T08:59:04.004Z,43.60
2018-01-28T09:00:56.960Z,38.30
2018-01-28T09:01:56.859Z,41.60
2018-01-28T09:03:49.987Z,41.40
2018-01-28T09:04:49.917Z,42.40
2018-01-28T09:06:42.811Z,42.60
2018-01-28T09:07:42.766Z,40.70
2018-01-28T09:09:35.705Z,38.50
2018-01-28T09:10:35.581Z,39.50
2018-01-28T09:12:28.480Z,36.40
2018-01-28T09:13:28.445Z,41.10
2018-01-28T09:15:21.334Z,36.50
2018-01-28T09:16:21.346Z,36.60
2018-01-28T09:18:14.196Z,37.80
2018-01-28T09:19:14.131Z,40.60
2018-01-28T09:21:07.012Z,39.10
2018-01-28T09:22:06.985Z,38.00
2018-01-28T09:23:59.935Z,38.00
2018-01-28T09:24:59.830Z,37.80
2018-01-28T09:26:52.755Z,36.30
2018-01-28T09:27:52.743Z,37.00
2018-01-28T09:29:45.621Z,37.00
2018-01-28T09:30:45.596Z,38.40
2018-01-28T09:32:38.434Z,33.30
2018-01-28T09:33:38.447Z,35.50
2018-01-28T09:35:31.288Z,36.10
2018-01-28T09:36:31.238Z,38.50
2018-01-28T09:38:24.229Z,38.30
2018-01-28T09:39:24.139Z,41.00
2018-01-28T09:41:17.001Z,39.00
2018-01-28T09:42:16.998Z,38.70
2018-01-28T09:44:09.885Z,37.30
2018-01-28T09:45:09.787Z,38.80
2018-01-28T09:47:02.705Z,37.30
2018-01-28T09:48:02.699Z,38.90
2018-01-28T09:49:55.584Z,37.40
2018-01-28T09:50:55.489Z,39.30
2018-01-28T09:52:48.400Z,36.30
2018-01-28T09:53:48.399Z,34.40
2018-01-28T09:55:41.220Z,41.50
2018-01-28T09:56:41.250Z,40.50
2018-01-28T09:58:34.105Z,39.60
2018-01-28T09:59:34.036Z,40.90
2018-01-28T10:01:26.942Z,42.00
2018-01-28T10:02:26.904Z,43.80
2018-01-28T10:04:19.806Z,40.50
2018-01-28T10:05:19.742Z,41.40
2018-01-28T10:07:12.621Z,42.70
2018-01-28T10:08:12.663Z,41.30
2018-01-28T10:10:05.551Z,37.60
2018-01-28T10:11:05.467Z,44.50
2018-01-28T10:12:58.348Z,41.20
2018-01-28T10:13:58.317Z,40.90
2018-01-28T10:15:51.204Z,42.20
2018-01-28T10:16:51.202Z,42.40
2018-01-28T10:18:44.030Z,43.40
2018-01-28T10:19:45.080Z,42.20
2018-01-28T10:21:37.075Z,41.10
2018-01-28T10:22:36.894Z,41.40
2018-01-28T10:24:29.794Z,43.50
2018-01-28T10:25:29.694Z,41.70
2018-01-28T10:27:22.641Z,41.10
2018-01-28T10:28:22.558Z,41.50
2018-01-28T10:30:15.509Z,38.40
2018-01-28T10:31:15.395Z,37.10
2018-01-28T10:33:08.361Z,41.20
2018-01-28T10:34:08.246Z,40.00
2018-01-28T10:36:01.193Z,39.80
2018-01-28T10:37:01.101Z,37.50
2018-01-28T10:38:54.007Z,35.90
2018-01-28T10:39:54.011Z,37.70
2018-01-28T10:41:46.841Z,38.20
2018-01-28T10:42:46.809Z,38.60
2018-01-28T10:44:39.699Z,37.70
2018-01-28T10:45:39.650Z,38.40
2018-01-28T10:47:32.693Z,36.60
2018-01-28T10:48:32.662Z,34.30
2018-01-28T10:50:25.508Z,35.50
2018-01-28T10:51:25.511Z,37.30
2018-01-28T10:53:18.338Z,35.30
2018-01-28T10:54:18.312Z,37.00
2018-01-28T10:56:11.203Z,36.90
2018-01-28T10:57:11.151Z,31.00
2018-01-28T10:59:04.033Z,32.20
2018-01-28T11:00:04.001Z,34.30
2018-01-28T11:01:57.091Z,30.00
2018-01-28T11:02:56.855Z,32.30
2018-01-28T11:04:49.802Z,28.40
2018-01-28T11:05:49.701Z,27.40
2018-01-28T11:07:42.610Z,28.10
2018-01-28T11:08:42.555Z,29.20
2018-01-28T11:10:35.440Z,28.70
2018-01-28T11:11:35.402Z,27.50
2018-01-28T11:13:28.420Z,25.40
2018-01-28T11:14:28.257Z,24.90
2018-01-28T11:16:21.138Z,25.30
2018-01-28T11:17:21.269Z,26.50
2018-01-28T11:19:14.114Z,25.20
2018-01-28T11:20:13.957Z,26.00
2018-01-28T11:22:06.923Z,25.90
2018-01-28T11:23:06.813Z,24.00
2018-01-28T11:24:59.759Z,22.00
2018-01-28T11:25:59.655Z,24.10
2018-01-28T11:27:52.605Z,23.70
2018-01-28T11:28:52.505Z,25.10
2018-01-28T11:30:45.531Z,23.30
2018-01-28T11:31:45.360Z,24.20
2018-01-28T11:33:38.236Z,22.20
2018-01-28T11:34:38.210Z,22.20
2018-01-28T11:36:31.122Z,24.00
2018-01-28T11:37:31.069Z,21.60
2018-01-28T11:39:24.008Z,23.80
2018-01-28T11:40:23.908Z,24.70
2018-01-28T11:42:16.854Z,22.30
2018-01-28T11:43:16.763Z,23.30
2018-01-28T11:45:09.709Z,24.10
2018-01-28T11:46:09.611Z,23.10
2018-01-28T11:48:02.563Z,22.20
2018-01-28T11:49:02.459Z,22.80
2018-01-28T11:50:55.348Z,22.50
2018-01-28T11:51:55.373Z,24.00
2018-01-28T11:53:48.261Z,22.40
2018-01-28T11:54:48.165Z,23.70
2018-01-28T11:56:41.112Z,22.50
2018-01-28T11:57:41.042Z,21.80
2018-01-28T11:59:33.922Z,23.60
2018-01-28T12:00:33.867Z,22.40
2018-01-28T12:02:26.748Z,23.90
2018-01-28T12:03:26.716Z,22.90
2018-01-28T12:05:19.662Z,22.10
2018-01-28T12:06:19.564Z,21.20
2018-01-28T12:08:12.546Z,22.30
2018-01-28T12:09:12.413Z,21.70
2018-01-28T12:11:05.373Z,23.00
2018-01-28T12:12:05.267Z,21.20
2018-01-28T12:13:58.149Z,20.00
2018-01-28T12:14:58.119Z,20.20
2018-01-28T12:16:51.065Z,19.80
2018-01-28T12:17:50.968Z,19.40
2018-01-28T12:19:43.911Z,19.00
2018-01-28T12:20:43.816Z,19.90
2018-01-28T12:22:36.733Z,19.50
2018-01-28T12:23:36.665Z,19.30
2018-01-28T12:25:29.551Z,18.00
2018-01-28T12:26:29.519Z,19.10
2018-01-28T12:28:22.982Z,18.70
2018-01-28T12:29:22.888Z,19.20
2018-01-28T12:31:15.823Z,20.20
2018-01-28T12:32:15.732Z,18.30
2018-01-28T12:34:08.740Z,16.50
2018-01-28T12:35:08.591Z,17.00
2018-01-28T12:37:01.528Z,17.60
2018-01-28T12:38:01.431Z,17.20
2018-01-28T12:39:54.377Z,16.50
2018-01-28T12:40:54.323Z,16.30
2018-01-28T12:42:47.162Z,15.90
2018-01-28T12:43:47.139Z,15.10
2018-01-28T12:45:40.215Z,15.70
2018-01-28T12:46:40.015Z,15.50
2018-01-28T12:48:32.865Z,16.70
2018-01-28T12:49:32.863Z,16.60
2018-01-28T12:51:25.783Z,16.60
2018-01-28T12:52:25.688Z,15.70
2018-01-28T12:54:18.563Z,16.40
2018-01-28T12:55:18.537Z,14.90
2018-01-28T12:57:11.484Z,15.20
2018-01-28T12:58:11.385Z,15.20
2018-01-28T13:00:04.266Z,15.80
2018-01-28T13:01:04.239Z,15.80
2018-01-28T13:02:58.205Z,14.50
2018-01-28T13:03:57.089Z,14.30
2018-01-28T13:05:49.966Z,15.00
2018-01-28T13:06:50.100Z,14.10
2018-01-28T13:08:42.883Z,14.10
2018-01-28T13:09:42.797Z,13.30
2018-01-28T13:11:35.674Z,15.20
2018-01-28T13:12:35.697Z,15.20
2018-01-28T13:14:28.547Z,14.00
2018-01-28T13:15:28.487Z,14.00
2018-01-28T13:17:21.435Z,13.00
2018-01-28T13:18:21.341Z,14.20
2018-01-28T13:20:14.391Z,13.10
2018-01-28T13:21:14.289Z,13.10
2018-01-28T13:23:07.178Z,12.40
2018-01-28T13:24:07.206Z,12.90
2018-01-28T13:26:00.126Z,12.70
2018-01-28T13:26:59.995Z,13.20
2018-01-28T13:28:52.875Z,12.40
2018-01-28T13:29:52.839Z,13.10
2018-01-28T13:31:45.796Z,12.30
2018-01-28T13:32:45.696Z,12.90
2018-01-28T13:34:38.575Z,12.10
2018-01-28T13:35:38.543Z,11.40
2018-01-28T13:37:31.492Z,12.20
2018-01-28T13:38:31.392Z,13.80
2018-01-28T13:40:24.274Z,12.00
2018-01-28T13:41:24.246Z,11.30
2018-01-28T13:43:17.158Z,11.30
2018-01-28T13:44:17.151Z,11.80
2018-01-28T13:46:09.979Z,11.20
2018-01-28T13:47:09.947Z,10.90
2018-01-28T13:49:02.892Z,11.00
2018-01-28T13:50:02.799Z,11.30
2018-01-28T13:51:55.750Z,11.20
2018-01-28T13:52:55.652Z,11.20
2018-01-28T13:54:48.600Z,11.10
2018-01-28T13:55:48.506Z,11.10
2018-01-28T13:57:41.381Z,10.80
2018-01-28T13:58:41.349Z,10.60
2018-01-28T14:00:34.298Z,10.00
2018-01-28T14:01:34.203Z,9.70
2018-01-28T14:03:27.148Z,9.70
2018-01-28T14:04:27.047Z,8.70
2018-01-28T14:06:19.991Z,13.40
2018-01-28T14:07:19.902Z,9.00
2018-01-28T14:09:12.782Z,9.40
2018-01-28T14:10:12.809Z,10.90
2018-01-28T14:12:05.722Z,8.60
2018-01-28T14:13:05.601Z,8.70
2018-01-28T14:14:58.486Z,9.40
2018-01-28T14:15:58.455Z,8.80
2018-01-28T14:17:51.376Z,9.40
2018-01-28T14:18:51.303Z,9.80
2018-01-28T14:20:44.254Z,9.10
2018-01-28T14:21:44.156Z,8.20
2018-01-28T14:23:37.098Z,8.40
2018-01-28T14:24:37.007Z,8.00
2018-01-28T14:26:29.883Z,8.70
2018-01-28T14:27:29.875Z,8.30
2018-01-28T14:29:22.800Z,8.60
2018-01-28T14:30:22.698Z,8.20
2018-01-28T14:32:15.587Z,8.30
2018-01-28T14:33:15.559Z,8.30
2018-01-28T14:35:08.473Z,7.90
2018-01-28T14:36:08.408Z,7.80
2018-01-28T14:38:01.283Z,8.30
2018-01-28T14:39:01.252Z,7.40
2018-01-28T14:40:54.216Z,7.60
2018-01-28T14:41:54.109Z,7.40
2018-01-28T14:43:46.982Z,8.20
2018-01-28T14:44:46.956Z,8.00
2018-01-28T14:46:39.903Z,7.60
2018-01-28T14:47:39.808Z,8.20
2018-01-28T14:49:32.755Z,7.90
2018-01-28T14:50:32.656Z,8.60
2018-01-28T14:52:25.566Z,7.80
2018-01-28T14:53:25.509Z,7.60
2018-01-28T14:55:18.390Z,7.80
2018-01-28T14:56:18.420Z,7.80
2018-01-28T14:58:11.269Z,7.30
2018-01-28T14:59:11.275Z,8.10
2018-01-28T15:01:04.089Z,8.20
2018-01-28T15:02:04.062Z,7.60
2018-01-28T15:03:56.968Z,8.50
2018-01-28T15:04:56.911Z,8.30
2018-01-28T15:06:49.854Z,8.50
2018-01-28T15:07:49.762Z,8.50
2018-01-28T15:09:42.707Z,9.20
2018-01-28T15:10:42.667Z,8.10
2018-01-28T15:12:35.528Z,8.60
2018-01-28T15:13:35.464Z,8.20
2018-01-28T15:15:28.375Z,8.50
2018-01-28T15:16:28.314Z,8.20
2018-01-28T15:18:21.192Z,9.40
2018-01-28T15:19:21.223Z,8.60
2018-01-28T15:21:14.072Z,9.50
2018-01-28T15:22:14.013Z,9.70
2018-01-28T15:24:06.958Z,8.40
2018-01-28T15:25:06.860Z,9.20
2018-01-28T15:26:59.773Z,8.20
2018-01-28T15:27:59.778Z,9.20
2018-01-28T15:29:52.658Z,9.00
2018-01-28T15:30:52.562Z,8.40
2018-01-28T15:32:45.480Z,8.70
2018-01-28T15:33:45.475Z,8.80
2018-01-28T15:35:39.387Z,8.70
2018-01-28T15:36:38.274Z,8.10
2018-01-28T15:38:31.232Z,8.40
2018-01-28T15:39:31.114Z,8.70
2018-01-28T15:41:23.995Z,8.50
2018-01-28T15:42:23.970Z,7.90
2018-01-28T15:44:16.984Z,8.60
2018-01-28T15:45:16.821Z,8.80
2018-01-28T15:47:09.697Z,9.40
2018-01-28T15:48:09.679Z,8.50
2018-01-28T15:50:02.616Z,8.90
2018-01-28T15:51:02.531Z,8.90
2018-01-28T15:52:55.508Z,8.40
2018-01-28T15:53:55.365Z,8.30
2018-01-28T15:55:48.314Z,8.70
2018-01-28T15:56:48.218Z,8.90
2018-01-28T15:58:41.122Z,8.50
2018-01-28T15:59:41.091Z,7.90
2018-01-28T16:01:34.153Z,8.40
2018-01-28T16:02:33.937Z,8.10
2018-01-28T16:04:26.797Z,8.90
2018-01-28T16:05:26.779Z,8.80
2018-01-28T16:07:19.738Z,9.00
2018-01-28T16:08:19.625Z,8.60
2018-01-28T16:10:12.503Z,8.50
2018-01-28T16:11:12.469Z,9.20
2018-01-28T16:13:05.422Z,9.20
2018-01-28T16:14:05.318Z,9.30
2018-01-28T16:15:58.208Z,8.70
2018-01-28T16:16:58.233Z,9.10
2018-01-28T16:18:51.120Z,9.20
2018-01-28T16:19:51.024Z,8.80
2018-01-28T16:21:43.904Z,8.40
2018-01-28T16:22:43.871Z,9.70
2018-01-28T16:24:36.775Z,8.90
2018-01-28T16:25:36.724Z,9.20
2018-01-28T16:27:29.600Z,8.40
2018-01-28T16:28:29.573Z,9.00
2018-01-28T16:30:22.519Z,9.30
2018-01-28T16:31:22.428Z,9.10
2018-01-28T16:33:15.302Z,9.50
2018-01-28T16:34:15.287Z,8.70
2018-01-28T16:36:08.176Z,9.80
2018-01-28T16:37:08.132Z,9.80
2018-01-28T16:39:01.006Z,10.10
2018-01-28T16:40:00.973Z,9.60
2018-01-28T16:41:53.885Z,11.20
2018-01-28T16:42:53.886Z,9.60
2018-01-28T16:44:46.709Z,11.20
2018-01-28T16:45:46.737Z,10.40
2018-01-28T16:47:39.624Z,10.50
2018-01-28T16:48:39.528Z,11.00
2018-01-28T16:50:32.411Z,10.10
2018-01-28T16:51:32.372Z,10.50
2018-01-28T16:53:25.289Z,10.30
2018-01-28T16:54:25.229Z,10.70
2018-01-28T16:56:18.110Z,11.00
2018-01-28T16:57:18.074Z,11.00
2018-01-28T16:59:11.025Z,10.90
2018-01-28T17:00:10.925Z,11.70
2018-01-28T17:02:03.811Z,10.80
2018-01-28T17:03:03.840Z,11.00
2018-01-28T17:04:56.728Z,13.30
2018-01-28T17:05:56.633Z,12.10
2018-01-28T17:07:49.510Z,12.50
2018-01-28T17:08:49.482Z,12.90
2018-01-28T17:10:42.432Z,13.50
2018-01-28T17:11:42.325Z,13.30
2018-01-28T17:13:35.278Z,13.50
2018-01-28T17:14:35.183Z,13.90
2018-01-28T17:16:28.095Z,13.90
2018-01-28T17:17:28.034Z,13.50
2018-01-28T17:19:20.915Z,14.10
2018-01-28T17:20:20.884Z,14.70
2018-01-28T17:22:13.834Z,16.60
2018-01-28T17:23:13.727Z,15.10
2018-01-28T17:25:06.613Z,16.00
2018-01-28T17:26:06.578Z,17.40
2018-01-28T17:27:59.528Z,14.90
2018-01-28T17:28:59.432Z,16.20
2018-01-28T17:30:52.316Z,17.20
2018-01-28T17:31:52.283Z,17.70
2018-01-28T17:33:45.189Z,17.60
2018-01-28T17:34:45.132Z,17.30
2018-01-28T17:36:38.092Z,18.10
2018-01-28T17:37:37.986Z,19.10
2018-01-28T17:39:30.934Z,19.50
2018-01-28T17:40:30.834Z,19.40
2018-01-28T17:42:23.718Z,19.80
2018-01-28T17:43:23.747Z,18.50
2018-01-28T17:45:16.596Z,17.10
2018-01-28T17:46:16.600Z,18.90
2018-01-28T17:48:09.416Z,19.30
2018-01-28T17:49:09.389Z,19.10
2018-01-28T17:51:02.295Z,18.50
2018-01-28T17:52:02.235Z,20.00
2018-01-28T17:53:55.171Z,17.90
2018-01-28T17:54:55.087Z,18.50
2018-01-28T17:56:48.037Z,19.20
2018-01-28T17:57:47.965Z,17.20
2018-01-28T17:59:40.888Z,18.50
2018-01-28T18:00:40.788Z,19.00
2018-01-28T18:02:33.697Z,19.20
2018-01-28T18:03:33.640Z,19.60
2018-01-28T18:05:26.522Z,20.50
2018-01-28T18:06:26.489Z,19.70
2018-01-28T18:08:19.397Z,20.00
2018-01-28T18:09:19.343Z,19.00
2018-01-28T18:11:12.290Z,19.50
2018-01-28T18:12:12.189Z,19.80
2018-01-28T18:14:05.153Z,16.40
2018-01-28T18:15:05.048Z,18.60
2018-01-28T18:16:57.924Z,20.70
2018-01-28T18:17:57.893Z,20.30
2018-01-28T18:19:50.852Z,20.80
2018-01-28T18:20:50.747Z,23.40
2018-01-28T18:22:43.692Z,21.80
2018-01-28T18:23:43.591Z,20.50
2018-01-28T18:25:36.539Z,21.50
2018-01-28T18:26:36.445Z,21.70
2018-01-28T18:28:29.395Z,21.00
2018-01-28T18:29:29.293Z,22.30
2018-01-28T18:31:22.240Z,28.90
2018-01-28T18:32:22.147Z,21.40
2018-01-28T18:34:15.032Z,22.50
2018-01-28T18:35:15.056Z,23.30
2018-01-28T18:37:07.903Z,22.90
2018-01-28T18:38:07.846Z,23.20